sensor_id;sensor_type;location;lat;lon;timestamp;P1;durP1;ratioP1;P2;durP2;ratioP2
4359;SDS011;2193;47.980;7.660;2022-12-20T00:02:00;16.33;;;9.47;;
4359;SDS011;2193;47.980;7.660;2022-12-20T00:04:26;17.00;;;10.03;;
4359;SDS011;2193;47.980;7.660;2022-12-20T00:06:51;16.33;;;9.47;;
4359;SDS011;2193;47.980;7.660;2022-12-20T00:09:16;16.60;;;9.73;;
4359;SDS011;2193;47.980;7.660;2022-12-20T00:11:41;13.90;;;9.53;;
4359;SDS011;2193;47.980;7.660;2022-12-20T00:14:07;16.10;;;10.13;;
4359;SDS011;2193;47.980;7.660;2022-12-20T00:16:33;16.17;;;10.10;;
4359;SDS011;2193;47.980;7.660;2022-12-20T00:19:00;14.80;;;9.10;;
4359;SDS011;2193;47.980;7.660;2022-12-20T00:21:27;12.48;;;8.57;;
4359;SDS011;2193;47.980;7.660;2022-12-20T00:23:52;14.32;;;9.45;;
4359;SDS011;2193;47.980;7.660;2022-12-20T00:26:18;15.33;;;9.50;;
4359;SDS011;2193;47.980;7.660;2022-12-20T00:28:44;14.23;;;9.20;;
4359;SDS011;2193;47.980;7.660;2022-12-20T00:31:10;12.73;;;8.43;;
4359;SDS011;2193;47.980;7.660;2022-12-20T00:33:36;13.30;;;9.18;;
4359;SDS011;2193;47.980;7.660;2022-12-20T00:36:01;15.40;;;9.98;;
4359;SDS011;2193;47.980;7.660;2022-12-20T00:38:26;15.17;;;9.00;;
4359;SDS011;2193;47.980;7.660;2022-12-20T00:40:59;15.40;;;8.90;;
4359;SDS011;2193;47.980;7.660;2022-12-20T00:43:24;12.50;;;8.80;;
4359;SDS011;2193;47.980;7.660;2022-12-20T00:45:49;13.27;;;9.53;;
4359;SDS011;2193;47.980;7.660;2022-12-20T00:48:14;14.70;;;8.70;;
4359;SDS011;2193;47.980;7.660;2022-12-20T00:50:39;14.03;;;9.00;;
4359;SDS011;2193;47.980;7.660;2022-12-20T00:53:05;15.70;;;8.90;;
4359;SDS011;2193;47.980;7.660;2022-12-20T00:55:33;12.63;;;7.97;;
4359;SDS011;2193;47.980;7.660;2022-12-20T00:57:59;14.90;;;8.90;;
4359;SDS011;2193;47.980;7.660;2022-12-20T01:00:24;15.13;;;9.20;;
4359;SDS011;2193;47.980;7.660;2022-12-20T01:02:49;12.27;;;8.10;;
4359;SDS011;2193;47.980;7.660;2022-12-20T01:05:14;12.07;;;8.20;;
4359;SDS011;2193;47.980;7.660;2022-12-20T01:07:39;14.90;;;9.10;;
4359;SDS011;2193;47.980;7.660;2022-12-20T01:10:05;13.93;;;8.37;;
4359;SDS011;2193;47.980;7.660;2022-12-20T01:12:30;17.43;;;8.70;;
4359;SDS011;2193;47.980;7.660;2022-12-20T01:14:55;13.77;;;8.53;;
4359;SDS011;2193;47.980;7.660;2022-12-20T01:17:20;11.83;;;8.07;;
4359;SDS011;2193;47.980;7.660;2022-12-20T01:19:46;13.53;;;9.20;;
4359;SDS011;2193;47.980;7.660;2022-12-20T01:22:11;12.03;;;7.80;;
4359;SDS011;2193;47.980;7.660;2022-12-20T01:24:36;15.57;;;9.07;;
4359;SDS011;2193;47.980;7.660;2022-12-20T01:27:01;9.83;;;7.80;;
4359;SDS011;2193;47.980;7.660;2022-12-20T01:29:26;13.77;;;8.10;;
4359;SDS011;2193;47.980;7.660;2022-12-20T01:31:52;12.57;;;8.03;;
4359;SDS011;2193;47.980;7.660;2022-12-20T01:34:19;9.90;;;7.15;;
4359;SDS011;2193;47.980;7.660;2022-12-20T01:36:44;10.87;;;7.50;;
4359;SDS011;2193;47.980;7.660;2022-12-20T01:39:13;13.93;;;7.40;;
4359;SDS011;2193;47.980;7.660;2022-12-20T01:41:42;13.75;;;7.75;;
4359;SDS011;2193;47.980;7.660;2022-12-20T01:46:42;14.52;;;8.02;;
4359;SDS011;2193;47.980;7.660;2022-12-20T01:49:08;11.53;;;7.30;;
4359;SDS011;2193;47.980;7.660;2022-12-20T01:51:38;11.27;;;7.50;;
4359;SDS011;2193;47.980;7.660;2022-12-20T01:54:47;11.48;;;7.50;;
4359;SDS011;2193;47.980;7.660;2022-12-20T01:56:54;9.55;;;6.68;;
4359;SDS011;2193;47.980;7.660;2022-12-20T01:59:20;10.27;;;7.72;;
4359;SDS011;2193;47.980;7.660;2022-12-20T02:01:45;8.97;;;7.23;;
4359;SDS011;2193;47.980;7.660;2022-12-20T02:04:11;14.10;;;7.20;;
4359;SDS011;2193;47.980;7.660;2022-12-20T02:06:36;8.70;;;6.27;;
4359;SDS011;2193;47.980;7.660;2022-12-20T02:09:02;10.90;;;6.90;;
4359;SDS011;2193;47.980;7.660;2022-12-20T02:16:44;16.15;;;7.95;;
4359;SDS011;2193;47.980;7.660;2022-12-20T02:19:22;11.88;;;8.27;;
4359;SDS011;2193;47.980;7.660;2022-12-20T02:22:13;11.27;;;8.15;;
4359;SDS011;2193;47.980;7.660;2022-12-20T02:30:05;11.85;;;8.73;;
4359;SDS011;2193;47.980;7.660;2022-12-20T02:32:38;14.13;;;8.98;;
4359;SDS011;2193;47.980;7.660;2022-12-20T02:35:05;14.35;;;8.93;;
4359;SDS011;2193;47.980;7.660;2022-12-20T02:37:31;13.68;;;8.77;;
4359;SDS011;2193;47.980;7.660;2022-12-20T02:39:56;13.10;;;9.37;;
4359;SDS011;2193;47.980;7.660;2022-12-20T02:42:22;13.80;;;9.20;;
4359;SDS011;2193;47.980;7.660;2022-12-20T02:44:51;15.25;;;9.43;;
4359;SDS011;2193;47.980;7.660;2022-12-20T02:50:11;14.45;;;8.82;;
4359;SDS011;2193;47.980;7.660;2022-12-20T02:52:36;14.87;;;9.40;;
4359;SDS011;2193;47.980;7.660;2022-12-20T02:55:02;13.93;;;9.13;;
4359;SDS011;2193;47.980;7.660;2022-12-20T03:00:13;13.80;;;9.02;;
4359;SDS011;2193;47.980;7.660;2022-12-20T03:02:39;15.95;;;9.80;;
4359;SDS011;2193;47.980;7.660;2022-12-20T03:05:25;14.18;;;9.68;;
4359;SDS011;2193;47.980;7.660;2022-12-20T03:07:50;14.55;;;9.60;;
4359;SDS011;2193;47.980;7.660;2022-12-20T03:10:16;17.93;;;9.60;;
4359;SDS011;2193;47.980;7.660;2022-12-20T03:12:41;15.80;;;9.10;;
4359;SDS011;2193;47.980;7.660;2022-12-20T03:15:07;19.90;;;10.33;;
4359;SDS011;2193;47.980;7.660;2022-12-20T03:17:33;14.77;;;10.05;;
4359;SDS011;2193;47.980;7.660;2022-12-20T03:19:58;16.40;;;10.63;;
4359;SDS011;2193;47.980;7.660;2022-12-20T03:22:23;13.20;;;9.27;;
4359;SDS011;2193;47.980;7.660;2022-12-20T03:24:48;13.60;;;9.70;;
4359;SDS011;2193;47.980;7.660;2022-12-20T03:27:14;14.50;;;10.10;;
4359;SDS011;2193;47.980;7.660;2022-12-20T03:29:39;17.90;;;10.73;;
4359;SDS011;2193;47.980;7.660;2022-12-20T03:32:04;18.10;;;10.47;;
4359;SDS011;2193;47.980;7.660;2022-12-20T03:34:30;17.35;;;11.13;;
4359;SDS011;2193;47.980;7.660;2022-12-20T03:36:56;27.83;;;16.13;;
4359;SDS011;2193;47.980;7.660;2022-12-20T03:39:21;23.27;;;13.57;;
4359;SDS011;2193;47.980;7.660;2022-12-20T03:41:46;18.33;;;11.77;;
4359;SDS011;2193;47.980;7.660;2022-12-20T03:44:11;16.20;;;11.07;;
4359;SDS011;2193;47.980;7.660;2022-12-20T03:46:36;17.10;;;10.60;;
4359;SDS011;2193;47.980;7.660;2022-12-20T03:49:02;14.07;;;9.43;;
4359;SDS011;2193;47.980;7.660;2022-12-20T03:51:27;17.83;;;11.03;;
4359;SDS011;2193;47.980;7.660;2022-12-20T03:53:52;19.23;;;11.57;;
4359;SDS011;2193;47.980;7.660;2022-12-20T03:56:17;18.00;;;10.70;;
4359;SDS011;2193;47.980;7.660;2022-12-20T03:58:43;28.07;;;15.10;;
4359;SDS011;2193;47.980;7.660;2022-12-20T04:03:42;31.05;;;16.70;;
4359;SDS011;2193;47.980;7.660;2022-12-20T04:06:07;28.43;;;15.83;;
4359;SDS011;2193;47.980;7.660;2022-12-20T04:08:33;16.20;;;11.67;;
4359;SDS011;2193;47.980;7.660;2022-12-20T04:10:58;16.23;;;10.17;;
4359;SDS011;2193;47.980;7.660;2022-12-20T04:13:51;17.02;;;11.18;;
4359;SDS011;2193;47.980;7.660;2022-12-20T04:16:19;15.60;;;10.27;;
4359;SDS011;2193;47.980;7.660;2022-12-20T04:18:44;14.55;;;9.90;;
4359;SDS011;2193;47.980;7.660;2022-12-20T04:21:10;15.30;;;9.60;;
4359;SDS011;2193;47.980;7.660;2022-12-20T04:23:36;14.00;;;9.60;;
4359;SDS011;2193;47.980;7.660;2022-12-20T04:26:02;13.97;;;9.87;;
4359;SDS011;2193;47.980;7.660;2022-12-20T04:28:28;15.85;;;9.85;;
4359;SDS011;2193;47.980;7.660;2022-12-20T04:30:53;13.60;;;9.37;;
4359;SDS011;2193;47.980;7.660;2022-12-20T04:33:19;18.33;;;10.00;;
4359;SDS011;2193;47.980;7.660;2022-12-20T04:35:44;14.90;;;9.87;;
4359;SDS011;2193;47.980;7.660;2022-12-20T04:38:09;15.20;;;10.60;;
4359;SDS011;2193;47.980;7.660;2022-12-20T04:40:34;14.13;;;9.30;;
4359;SDS011;2193;47.980;7.660;2022-12-20T04:42:59;16.70;;;10.00;;
4359;SDS011;2193;47.980;7.660;2022-12-20T04:45:25;13.73;;;8.90;;
4359;SDS011;2193;47.980;7.660;2022-12-20T04:47:50;12.83;;;9.50;;
4359;SDS011;2193;47.980;7.660;2022-12-20T04:50:15;12.90;;;8.47;;
4359;SDS011;2193;47.980;7.660;2022-12-20T04:52:40;13.97;;;8.63;;
4359;SDS011;2193;47.980;7.660;2022-12-20T04:55:24;14.50;;;8.57;;
4359;SDS011;2193;47.980;7.660;2022-12-20T04:57:49;17.53;;;8.97;;
4359;SDS011;2193;47.980;7.660;2022-12-20T05:00:14;13.00;;;8.77;;
4359;SDS011;2193;47.980;7.660;2022-12-20T05:02:40;13.02;;;8.43;;
4359;SDS011;2193;47.980;7.660;2022-12-20T05:05:06;13.63;;;8.30;;
4359;SDS011;2193;47.980;7.660;2022-12-20T05:07:31;11.97;;;8.60;;
4359;SDS011;2193;47.980;7.660;2022-12-20T05:09:56;11.93;;;8.50;;
4359;SDS011;2193;47.980;7.660;2022-12-20T05:12:22;14.10;;;7.73;;
4359;SDS011;2193;47.980;7.660;2022-12-20T05:14:47;12.70;;;7.67;;
4359;SDS011;2193;47.980;7.660;2022-12-20T05:17:12;10.63;;;7.70;;
4359;SDS011;2193;47.980;7.660;2022-12-20T05:19:37;14.00;;;7.97;;
4359;SDS011;2193;47.980;7.660;2022-12-20T05:22:02;13.33;;;7.60;;
4359;SDS011;2193;47.980;7.660;2022-12-20T05:24:46;9.90;;;6.63;;
4359;SDS011;2193;47.980;7.660;2022-12-20T05:27:30;9.25;;;6.22;;
4359;SDS011;2193;47.980;7.660;2022-12-20T05:29:56;9.17;;;6.80;;
4359;SDS011;2193;47.980;7.660;2022-12-20T05:32:21;8.00;;;6.27;;
4359;SDS011;2193;47.980;7.660;2022-12-20T05:34:46;11.27;;;5.97;;
4359;SDS011;2193;47.980;7.660;2022-12-20T05:37:11;10.83;;;5.53;;
4359;SDS011;2193;47.980;7.660;2022-12-20T05:39:36;9.37;;;6.03;;
4359;SDS011;2193;47.980;7.660;2022-12-20T05:42:02;5.90;;;5.00;;
4359;SDS011;2193;47.980;7.660;2022-12-20T05:44:27;7.50;;;5.67;;
4359;SDS011;2193;47.980;7.660;2022-12-20T05:46:52;10.40;;;7.00;;
4359;SDS011;2193;47.980;7.660;2022-12-20T05:49:17;8.93;;;5.83;;
4359;SDS011;2193;47.980;7.660;2022-12-20T05:51:42;9.13;;;5.27;;
4359;SDS011;2193;47.980;7.660;2022-12-20T05:54:08;8.30;;;5.83;;
4359;SDS011;2193;47.980;7.660;2022-12-20T05:56:33;8.40;;;5.80;;
4359;SDS011;2193;47.980;7.660;2022-12-20T05:58:58;8.77;;;6.10;;
4359;SDS011;2193;47.980;7.660;2022-12-20T06:01:23;9.77;;;6.27;;
4359;SDS011;2193;47.980;7.660;2022-12-20T06:03:49;8.73;;;5.53;;
4359;SDS011;2193;47.980;7.660;2022-12-20T06:06:15;7.80;;;5.90;;
4359;SDS011;2193;47.980;7.660;2022-12-20T06:08:40;7.47;;;5.70;;
4359;SDS011;2193;47.980;7.660;2022-12-20T06:11:05;6.97;;;5.30;;
4359;SDS011;2193;47.980;7.660;2022-12-20T06:13:31;10.60;;;6.10;;
4359;SDS011;2193;47.980;7.660;2022-12-20T06:15:56;9.03;;;6.10;;
4359;SDS011;2193;47.980;7.660;2022-12-20T06:18:21;8.33;;;6.10;;
4359;SDS011;2193;47.980;7.660;2022-12-20T06:20:50;7.47;;;5.63;;
4359;SDS011;2193;47.980;7.660;2022-12-20T06:23:15;11.13;;;5.60;;
4359;SDS011;2193;47.980;7.660;2022-12-20T06:25:40;7.60;;;5.40;;
4359;SDS011;2193;47.980;7.660;2022-12-20T06:28:05;10.00;;;5.73;;
4359;SDS011;2193;47.980;7.660;2022-12-20T06:30:31;7.47;;;5.07;;
4359;SDS011;2193;47.980;7.660;2022-12-20T06:32:56;8.73;;;5.30;;
4359;SDS011;2193;47.980;7.660;2022-12-20T06:35:22;7.53;;;5.60;;
4359;SDS011;2193;47.980;7.660;2022-12-20T06:37:47;7.30;;;5.50;;
4359;SDS011;2193;47.980;7.660;2022-12-20T06:40:12;8.57;;;5.47;;
4359;SDS011;2193;47.980;7.660;2022-12-20T06:42:38;9.13;;;5.40;;
4359;SDS011;2193;47.980;7.660;2022-12-20T06:45:03;7.30;;;5.33;;
4359;SDS011;2193;47.980;7.660;2022-12-20T06:47:29;8.83;;;6.40;;
4359;SDS011;2193;47.980;7.660;2022-12-20T06:49:54;9.53;;;6.20;;
4359;SDS011;2193;47.980;7.660;2022-12-20T06:52:19;9.30;;;6.60;;
4359;SDS011;2193;47.980;7.660;2022-12-20T06:54:44;10.27;;;7.30;;
4359;SDS011;2193;47.980;7.660;2022-12-20T06:57:10;14.40;;;9.83;;
4359;SDS011;2193;47.980;7.660;2022-12-20T06:59:35;7.93;;;5.40;;
4359;SDS011;2193;47.980;7.660;2022-12-20T07:02:00;13.93;;;10.53;;
4359;SDS011;2193;47.980;7.660;2022-12-20T07:04:26;11.60;;;6.77;;
4359;SDS011;2193;47.980;7.660;2022-12-20T07:06:51;9.10;;;5.70;;
4359;SDS011;2193;47.980;7.660;2022-12-20T07:09:16;9.23;;;6.93;;
4359;SDS011;2193;47.980;7.660;2022-12-20T07:11:41;10.20;;;6.23;;
4359;SDS011;2193;47.980;7.660;2022-12-20T07:14:07;8.73;;;7.00;;
4359;SDS011;2193;47.980;7.660;2022-12-20T07:16:32;12.20;;;6.90;;
4359;SDS011;2193;47.980;7.660;2022-12-20T07:18:58;11.97;;;7.67;;
4359;SDS011;2193;47.980;7.660;2022-12-20T07:21:23;10.10;;;7.10;;
4359;SDS011;2193;47.980;7.660;2022-12-20T07:23:48;11.83;;;7.70;;
4359;SDS011;2193;47.980;7.660;2022-12-20T07:26:14;11.40;;;6.90;;
4359;SDS011;2193;47.980;7.660;2022-12-20T07:28:39;12.27;;;6.83;;
4359;SDS011;2193;47.980;7.660;2022-12-20T07:31:05;9.93;;;6.83;;
4359;SDS011;2193;47.980;7.660;2022-12-20T07:33:30;10.73;;;7.30;;
4359;SDS011;2193;47.980;7.660;2022-12-20T07:36:02;14.50;;;7.77;;
4359;SDS011;2193;47.980;7.660;2022-12-20T07:38:27;12.43;;;7.65;;
4359;SDS011;2193;47.980;7.660;2022-12-20T07:40:53;12.63;;;7.87;;
4359;SDS011;2193;47.980;7.660;2022-12-20T07:43:18;19.83;;;10.10;;
4359;SDS011;2193;47.980;7.660;2022-12-20T07:45:44;14.97;;;9.77;;
4359;SDS011;2193;47.980;7.660;2022-12-20T07:48:09;12.10;;;6.50;;
4359;SDS011;2193;47.980;7.660;2022-12-20T07:50:34;15.27;;;7.73;;
4359;SDS011;2193;47.980;7.660;2022-12-20T07:53:00;11.83;;;6.80;;
4359;SDS011;2193;47.980;7.660;2022-12-20T07:55:26;8.65;;;5.90;;
4359;SDS011;2193;47.980;7.660;2022-12-20T07:57:54;11.07;;;6.75;;
4359;SDS011;2193;47.980;7.660;2022-12-20T08:00:21;11.27;;;7.38;;
4359;SDS011;2193;47.980;7.660;2022-12-20T08:03:09;11.83;;;7.43;;
4359;SDS011;2193;47.980;7.660;2022-12-20T08:05:32;9.10;;;6.13;;
4359;SDS011;2193;47.980;7.660;2022-12-20T08:07:58;14.13;;;7.30;;
4359;SDS011;2193;47.980;7.660;2022-12-20T08:10:23;11.17;;;7.60;;
4359;SDS011;2193;47.980;7.660;2022-12-20T08:12:49;16.10;;;7.17;;
4359;SDS011;2193;47.980;7.660;2022-12-20T08:15:14;13.27;;;7.93;;
4359;SDS011;2193;47.980;7.660;2022-12-20T08:17:40;14.10;;;8.60;;
4359;SDS011;2193;47.980;7.660;2022-12-20T08:20:05;13.27;;;8.37;;
4359;SDS011;2193;47.980;7.660;2022-12-20T08:22:32;12.40;;;9.35;;
4359;SDS011;2193;47.980;7.660;2022-12-20T08:24:58;14.07;;;9.90;;
4359;SDS011;2193;47.980;7.660;2022-12-20T08:27:23;18.43;;;11.70;;
4359;SDS011;2193;47.980;7.660;2022-12-20T08:29:48;25.67;;;12.20;;
4359;SDS011;2193;47.980;7.660;2022-12-20T08:32:14;17.47;;;10.93;;
4359;SDS011;2193;47.980;7.660;2022-12-20T08:34:39;11.77;;;8.13;;
4359;SDS011;2193;47.980;7.660;2022-12-20T08:37:05;11.33;;;7.40;;
4359;SDS011;2193;47.980;7.660;2022-12-20T08:39:30;10.57;;;7.33;;
4359;SDS011;2193;47.980;7.660;2022-12-20T08:41:55;10.10;;;6.77;;
4359;SDS011;2193;47.980;7.660;2022-12-20T08:44:20;10.93;;;7.30;;
4359;SDS011;2193;47.980;7.660;2022-12-20T08:46:45;13.10;;;8.57;;
4359;SDS011;2193;47.980;7.660;2022-12-20T08:49:11;10.00;;;7.03;;
4359;SDS011;2193;47.980;7.660;2022-12-20T08:51:36;13.50;;;8.33;;
4359;SDS011;2193;47.980;7.660;2022-12-20T08:54:01;13.90;;;7.50;;
4359;SDS011;2193;47.980;7.660;2022-12-20T08:56:26;10.63;;;7.30;;
4359;SDS011;2193;47.980;7.660;2022-12-20T08:58:52;11.37;;;7.50;;
4359;SDS011;2193;47.980;7.660;2022-12-20T09:01:18;9.13;;;7.07;;
4359;SDS011;2193;47.980;7.660;2022-12-20T09:03:44;13.23;;;8.38;;
4359;SDS011;2193;47.980;7.660;2022-12-20T09:06:11;9.97;;;7.50;;
4359;SDS011;2193;47.980;7.660;2022-12-20T09:08:37;13.18;;;8.65;;
4359;SDS011;2193;47.980;7.660;2022-12-20T09:11:04;12.60;;;8.90;;
4359;SDS011;2193;47.980;7.660;2022-12-20T09:13:29;11.93;;;7.97;;
4359;SDS011;2193;47.980;7.660;2022-12-20T09:15:54;12.07;;;8.23;;
4359;SDS011;2193;47.980;7.660;2022-12-20T09:18:20;13.40;;;7.80;;
4359;SDS011;2193;47.980;7.660;2022-12-20T09:20:45;14.23;;;8.37;;
4359;SDS011;2193;47.980;7.660;2022-12-20T09:23:10;14.10;;;9.50;;
4359;SDS011;2193;47.980;7.660;2022-12-20T09:25:36;17.13;;;8.90;;
4359;SDS011;2193;47.980;7.660;2022-12-20T09:28:01;13.23;;;8.77;;
4359;SDS011;2193;47.980;7.660;2022-12-20T09:30:26;11.97;;;8.43;;
4359;SDS011;2193;47.980;7.660;2022-12-20T09:32:52;13.97;;;8.33;;
4359;SDS011;2193;47.980;7.660;2022-12-20T09:35:17;13.17;;;8.37;;
4359;SDS011;2193;47.980;7.660;2022-12-20T09:37:42;13.57;;;8.27;;
4359;SDS011;2193;47.980;7.660;2022-12-20T09:40:13;11.17;;;7.40;;
4359;SDS011;2193;47.980;7.660;2022-12-20T09:42:39;13.02;;;7.97;;
4359;SDS011;2193;47.980;7.660;2022-12-20T09:45:05;15.40;;;9.30;;
4359;SDS011;2193;47.980;7.660;2022-12-20T09:47:33;12.55;;;8.50;;
4359;SDS011;2193;47.980;7.660;2022-12-20T09:49:58;13.40;;;7.80;;
4359;SDS011;2193;47.980;7.660;2022-12-20T09:55:16;12.45;;;7.95;;
4359;SDS011;2193;47.980;7.660;2022-12-20T10:00:18;12.68;;;7.63;;
4359;SDS011;2193;47.980;7.660;2022-12-20T10:02:43;14.13;;;7.90;;
4359;SDS011;2193;47.980;7.660;2022-12-20T10:05:13;13.80;;;8.40;;
4359;SDS011;2193;47.980;7.660;2022-12-20T10:15:43;14.40;;;8.80;;
4359;SDS011;2193;47.980;7.660;2022-12-20T10:18:16;16.23;;;8.35;;
4359;SDS011;2193;47.980;7.660;2022-12-20T10:25:50;16.83;;;8.60;;
4359;SDS011;2193;47.980;7.660;2022-12-20T10:28:17;14.95;;;8.48;;
4359;SDS011;2193;47.980;7.660;2022-12-20T10:30:44;15.13;;;9.05;;
4359;SDS011;2193;47.980;7.660;2022-12-20T10:33:17;20.07;;;9.00;;
4359;SDS011;2193;47.980;7.660;2022-12-20T10:35:43;11.90;;;7.87;;
4359;SDS011;2193;47.980;7.660;2022-12-20T10:38:09;12.83;;;8.07;;
4359;SDS011;2193;47.980;7.660;2022-12-20T10:40:39;13.40;;;8.35;;
4359;SDS011;2193;47.980;7.660;2022-12-20T10:43:05;12.73;;;8.00;;
4359;SDS011;2193;47.980;7.660;2022-12-20T10:45:37;17.57;;;9.77;;
4359;SDS011;2193;47.980;7.660;2022-12-20T10:50:54;15.03;;;9.40;;
4359;SDS011;2193;47.980;7.660;2022-12-20T10:53:20;15.70;;;9.40;;
4359;SDS011;2193;47.980;7.660;2022-12-20T10:55:45;14.33;;;8.33;;
4359;SDS011;2193;47.980;7.660;2022-12-20T10:58:15;14.40;;;7.90;;
4359;SDS011;2193;47.980;7.660;2022-12-20T11:00:41;11.67;;;7.40;;
4359;SDS011;2193;47.980;7.660;2022-12-20T11:03:10;12.93;;;8.17;;
4359;SDS011;2193;47.980;7.660;2022-12-20T11:05:35;15.00;;;7.70;;
4359;SDS011;2193;47.980;7.660;2022-12-20T11:08:12;11.87;;;7.73;;
4359;SDS011;2193;47.980;7.660;2022-12-20T11:10:37;13.97;;;7.77;;
4359;SDS011;2193;47.980;7.660;2022-12-20T11:13:03;12.37;;;8.10;;
4359;SDS011;2193;47.980;7.660;2022-12-20T11:15:29;14.10;;;8.13;;
4359;SDS011;2193;47.980;7.660;2022-12-20T11:18:05;13.87;;;8.37;;
4359;SDS011;2193;47.980;7.660;2022-12-20T11:30:29;14.33;;;9.07;;
4359;SDS011;2193;47.980;7.660;2022-12-20T11:35:29;13.87;;;8.30;;
4359;SDS011;2193;47.980;7.660;2022-12-20T11:38:06;14.83;;;8.53;;
4359;SDS011;2193;47.980;7.660;2022-12-20T11:40:36;16.57;;;10.67;;
4359;SDS011;2193;47.980;7.660;2022-12-20T11:53:25;15.13;;;9.40;;
4359;SDS011;2193;47.980;7.660;2022-12-20T11:55:52;16.80;;;8.60;;
4359;SDS011;2193;47.980;7.660;2022-12-20T11:58:30;16.43;;;8.30;;
4359;SDS011;2193;47.980;7.660;2022-12-20T12:01:06;16.23;;;7.97;;
4359;SDS011;2193;47.980;7.660;2022-12-20T12:03:34;11.00;;;7.70;;
4359;SDS011;2193;47.980;7.660;2022-12-20T12:06:04;14.03;;;8.40;;
4359;SDS011;2193;47.980;7.660;2022-12-20T12:08:39;12.43;;;8.00;;
4359;SDS011;2193;47.980;7.660;2022-12-20T12:11:07;14.53;;;8.37;;
4359;SDS011;2193;47.980;7.660;2022-12-20T12:13:35;11.80;;;7.20;;
4359;SDS011;2193;47.980;7.660;2022-12-20T12:18:32;9.40;;;7.00;;
4359;SDS011;2193;47.980;7.660;2022-12-20T12:28:44;12.73;;;7.60;;
4359;SDS011;2193;47.980;7.660;2022-12-20T12:31:11;11.20;;;7.90;;
4359;SDS011;2193;47.980;7.660;2022-12-20T12:33:42;13.00;;;8.33;;
4359;SDS011;2193;47.980;7.660;2022-12-20T12:41:25;14.20;;;8.50;;
4359;SDS011;2193;47.980;7.660;2022-12-20T12:43:58;11.13;;;7.50;;
4359;SDS011;2193;47.980;7.660;2022-12-20T12:46:30;12.63;;;7.77;;
4359;SDS011;2193;47.980;7.660;2022-12-20T12:51:25;19.07;;;8.47;;
4359;SDS011;2193;47.980;7.660;2022-12-20T12:53:53;19.73;;;8.30;;
4359;SDS011;2193;47.980;7.660;2022-12-20T13:04:26;10.27;;;7.37;;
4359;SDS011;2193;47.980;7.660;2022-12-20T13:07:01;13.17;;;7.80;;
4359;SDS011;2193;47.980;7.660;2022-12-20T13:11:52;14.80;;;9.90;;
4359;SDS011;2193;47.980;7.660;2022-12-20T13:16:50;14.63;;;8.80;;
4359;SDS011;2193;47.980;7.660;2022-12-20T13:24:34;16.37;;;8.23;;
4359;SDS011;2193;47.980;7.660;2022-12-20T13:27:00;13.33;;;8.53;;
4359;SDS011;2193;47.980;7.660;2022-12-20T13:29:27;14.20;;;8.60;;
4359;SDS011;2193;47.980;7.660;2022-12-20T13:31:56;16.17;;;9.20;;
4359;SDS011;2193;47.980;7.660;2022-12-20T13:34:38;14.60;;;8.97;;
4359;SDS011;2193;47.980;7.660;2022-12-20T13:37:29;19.10;;;8.80;;
4359;SDS011;2193;47.980;7.660;2022-12-20T13:40:17;13.67;;;8.90;;
4359;SDS011;2193;47.980;7.660;2022-12-20T13:42:43;17.13;;;8.90;;
4359;SDS011;2193;47.980;7.660;2022-12-20T13:45:10;14.33;;;7.83;;
4359;SDS011;2193;47.980;7.660;2022-12-20T13:47:38;15.40;;;7.53;;
4359;SDS011;2193;47.980;7.660;2022-12-20T13:50:20;10.73;;;6.90;;
4359;SDS011;2193;47.980;7.660;2022-12-20T13:52:46;10.50;;;6.70;;
4359;SDS011;2193;47.980;7.660;2022-12-20T13:55:32;16.50;;;6.63;;
4359;SDS011;2193;47.980;7.660;2022-12-20T13:58:02;10.90;;;6.80;;
4359;SDS011;2193;47.980;7.660;2022-12-20T14:00:28;10.30;;;6.90;;
4359;SDS011;2193;47.980;7.660;2022-12-20T14:02:53;12.00;;;6.93;;
4359;SDS011;2193;47.980;7.660;2022-12-20T14:05:22;12.13;;;7.40;;
4359;SDS011;2193;47.980;7.660;2022-12-20T14:08:36;18.00;;;10.20;;
4359;SDS011;2193;47.980;7.660;2022-12-20T14:10:35;13.70;;;8.20;;
4359;SDS011;2193;47.980;7.660;2022-12-20T14:13:01;15.17;;;8.40;;
4359;SDS011;2193;47.980;7.660;2022-12-20T14:15:28;19.47;;;11.53;;
4359;SDS011;2193;47.980;7.660;2022-12-20T14:17:54;25.77;;;13.10;;
4359;SDS011;2193;47.980;7.660;2022-12-20T14:20:29;30.53;;;12.70;;
4359;SDS011;2193;47.980;7.660;2022-12-20T14:23:03;18.20;;;9.60;;
4359;SDS011;2193;47.980;7.660;2022-12-20T14:28:03;16.83;;;8.40;;
4359;SDS011;2193;47.980;7.660;2022-12-20T14:30:33;13.77;;;7.40;;
4359;SDS011;2193;47.980;7.660;2022-12-20T14:32:59;14.67;;;8.77;;
4359;SDS011;2193;47.980;7.660;2022-12-20T14:35:24;27.10;;;15.70;;
4359;SDS011;2193;47.980;7.660;2022-12-20T14:37:57;17.70;;;8.77;;
4359;SDS011;2193;47.980;7.660;2022-12-20T14:40:24;13.40;;;5.50;;
4359;SDS011;2193;47.980;7.660;2022-12-20T14:42:49;16.37;;;5.53;;
4359;SDS011;2193;47.980;7.660;2022-12-20T14:45:16;15.70;;;7.23;;
4359;SDS011;2193;47.980;7.660;2022-12-20T14:47:49;15.90;;;8.70;;
4359;SDS011;2193;47.980;7.660;2022-12-20T14:50:19;7.20;;;5.00;;
4359;SDS011;2193;47.980;7.660;2022-12-20T14:52:46;7.07;;;4.90;;
4359;SDS011;2193;47.980;7.660;2022-12-20T14:55:44;8.13;;;4.90;;
4359;SDS011;2193;47.980;7.660;2022-12-20T14:58:21;15.73;;;8.77;;
4359;SDS011;2193;47.980;7.660;2022-12-20T15:00:57;10.37;;;5.30;;
4359;SDS011;2193;47.980;7.660;2022-12-20T15:03:23;25.07;;;7.43;;
4359;SDS011;2193;47.980;7.660;2022-12-20T15:05:49;9.27;;;6.80;;
4359;SDS011;2193;47.980;7.660;2022-12-20T15:10:56;9.93;;;5.23;;
4359;SDS011;2193;47.980;7.660;2022-12-20T15:13:27;9.60;;;5.93;;
4359;SDS011;2193;47.980;7.660;2022-12-20T15:15:53;10.50;;;6.50;;
4359;SDS011;2193;47.980;7.660;2022-12-20T15:18:19;13.60;;;8.60;;
4359;SDS011;2193;47.980;7.660;2022-12-20T15:20:46;21.27;;;12.33;;
4359;SDS011;2193;47.980;7.660;2022-12-20T15:23:16;10.90;;;7.00;;
4359;SDS011;2193;47.980;7.660;2022-12-20T15:25:41;9.13;;;6.13;;
4359;SDS011;2193;47.980;7.660;2022-12-20T15:28:11;20.83;;;11.13;;
4359;SDS011;2193;47.980;7.660;2022-12-20T15:30:36;11.63;;;6.30;;
4359;SDS011;2193;47.980;7.660;2022-12-20T15:33:01;10.50;;;5.73;;
4359;SDS011;2193;47.980;7.660;2022-12-20T15:35:27;9.63;;;5.10;;
4359;SDS011;2193;47.980;7.660;2022-12-20T15:37:53;9.10;;;4.23;;
4359;SDS011;2193;47.980;7.660;2022-12-20T15:40:18;8.40;;;4.23;;
4359;SDS011;2193;47.980;7.660;2022-12-20T15:42:43;8.87;;;6.63;;
4359;SDS011;2193;47.980;7.660;2022-12-20T15:45:12;9.00;;;5.93;;
4359;SDS011;2193;47.980;7.660;2022-12-20T15:47:38;10.80;;;5.30;;
4359;SDS011;2193;47.980;7.660;2022-12-20T15:50:03;13.20;;;4.73;;
4359;SDS011;2193;47.980;7.660;2022-12-20T15:52:28;8.77;;;4.40;;
4359;SDS011;2193;47.980;7.660;2022-12-20T15:54:54;9.00;;;4.07;;
4359;SDS011;2193;47.980;7.660;2022-12-20T15:57:19;13.50;;;4.50;;
4359;SDS011;2193;47.980;7.660;2022-12-20T15:59:45;6.93;;;4.73;;
4359;SDS011;2193;47.980;7.660;2022-12-20T16:04:41;12.43;;;4.10;;
4359;SDS011;2193;47.980;7.660;2022-12-20T16:07:07;11.87;;;5.20;;
4359;SDS011;2193;47.980;7.660;2022-12-20T16:09:34;12.03;;;4.70;;
4359;SDS011;2193;47.980;7.660;2022-12-20T16:11:59;28.40;;;5.43;;
4359;SDS011;2193;47.980;7.660;2022-12-20T16:14:24;10.30;;;5.07;;
4359;SDS011;2193;47.980;7.660;2022-12-20T16:16:51;10.13;;;5.53;;
4359;SDS011;2193;47.980;7.660;2022-12-20T16:19:16;9.30;;;5.30;;
4359;SDS011;2193;47.980;7.660;2022-12-20T16:21:46;11.03;;;4.10;;
4359;SDS011;2193;47.980;7.660;2022-12-20T16:24:12;9.20;;;4.00;;
4359;SDS011;2193;47.980;7.660;2022-12-20T16:26:38;9.47;;;5.60;;
4359;SDS011;2193;47.980;7.660;2022-12-20T16:29:03;19.63;;;9.70;;
4359;SDS011;2193;47.980;7.660;2022-12-20T16:31:29;11.17;;;7.33;;
4359;SDS011;2193;47.980;7.660;2022-12-20T16:33:55;11.13;;;6.20;;
4359;SDS011;2193;47.980;7.660;2022-12-20T16:36:21;8.00;;;4.60;;
4359;SDS011;2193;47.980;7.660;2022-12-20T16:38:47;8.27;;;4.60;;
4359;SDS011;2193;47.980;7.660;2022-12-20T16:41:13;8.53;;;5.03;;
4359;SDS011;2193;47.980;7.660;2022-12-20T16:43:39;6.70;;;4.13;;
4359;SDS011;2193;47.980;7.660;2022-12-20T16:46:04;9.67;;;5.40;;
4359;SDS011;2193;47.980;7.660;2022-12-20T16:48:29;7.60;;;4.60;;
4359;SDS011;2193;47.980;7.660;2022-12-20T16:50:55;10.50;;;5.30;;
4359;SDS011;2193;47.980;7.660;2022-12-20T16:53:20;8.10;;;5.40;;